Hundvaag 1 weather for May 2007
Month no. 239
Obs.
Da.
Temp. Dew Point Precip. Wind
Speed
Wind gusts Cloud cover Press. Humidity Wind dir. Sunny OPT
01.05.2007 7,7   0,0 4,8   10 1021,6 86,0 112,5 1 85,0 %
02.05.2007 7,9   0,0 8,0   10 1019,2 84,0 202,5 1 82,5 %
03.05.2007 8,4   0,0 3,2   1 1018,2 85,0 292,5 1 65,0 %
04.05.2007 7,3   0,0 12,9   0 1016,5 87,0 90,0 1 52,5 %
05.05.2007 7,0   0,0 6,4   3 1015,8 84,0 90,0 1 65,0 %
06.05.2007 7,4   0,0 27,4   1 1010,4 74,0 292,5   45,0 %
07.05.2007 7,9   8,1 6,4   3 998,2 90,0 180,0 1 62,5 %
08.05.2007 7,6   3,7 6,4   2 993,1 86,0 315,0   62,5 %
09.05.2007 6,0   1,0 20,9   3 1001,9 72,0 157,5 1 55,0 %
10.05.2007 5,2   0,7 3,2   1 1001,2 79,0 292,5   62,5 %
11.05.2007 10,1   0,0 8,0   10 996,8 59,0 337,5 1 85,0 %
12.05.2007 10,1   0,0 8,0   1 996,8 59,0 337,5 1 62,5 %
13.05.2007 10,1   2,5 8,0   9 996,8 59,0 337,5 1 82,5 %
14.05.2007 8,6   10,0 8,0   1 998,5 76,0 135,0 1 52,5 %
15.05.2007 6,4   3,6 3,2   3 1005,6 79,0 292,5 1 65,0 %
16.05.2007 5,4   2,0 0,0   3 1010,0 81,0   1 67,5 %
17.05.2007 5,8   0,0 12,9   8 1009,7 78,0 90,0 1 72,5 %
18.05.2007 8,1   0,0 25,7   1 1006,3 72,0 247,5   47,5 %
19.05.2007 9,6   7,5 29,0   0 996,5 85,0 315,0   40,0 %
20.05.2007 9,9   1,1 20,9   1 1010,7 84,0 337,5 1 52,5 %
21.05.2007 8,3   0,0 0,0   9 1020,5 82,0   1 85,0 %
22.05.2007 8,7   0,0 20,9   2 1014,1 66,0 0,0 1 55,0 %
23.05.2007 8,9   0,4 3,2   6 1018,2 87,0 157,5 1 77,5 %
24.05.2007 10,3   0,5 3,2   2 1012,8 92,0 202,5 1 70,0 %
25.05.2007 9,4   5,0 4,8   4 1005,6 95,0 225,0 1 67,5 %
26.05.2007 7,8   0,0 3,2   4 1003,6 78,0 180,0 1 72,5 %
27.05.2007 7,3   0,0 1,6   4 1006,7 87,0 292,5 1 70,0 %
28.05.2007 10,1   0,0 3,2   0 1001,9 70,0 0,0   65,0 %
29.05.2007 11,2   1,0 0,0   7 1005,3 88,0   1 82,5 %
30.05.2007 14,2   0,0 0,0   10 1000,9 81,0   1 92,5 %
31.05.2007 9,5   4,0 6,4   10 1014,4 80,0 180,0 1 82,5 %
Avrg/Sum 8,5   51,1 8,7   4,2 1007,3 79,5 210,8 25 67,3 %